createdAt,value
2023-09-01T00:01:08.295Z,98.13
2023-09-01T00:03:53.922Z,98.13
2023-09-01T00:06:22.728Z,98.07
2023-09-01T00:08:51.552Z,97.76
2023-09-01T00:11:20.865Z,97.77
2023-09-01T00:13:50.251Z,98.05
2023-09-01T00:16:20.448Z,97.88
2023-09-01T00:18:49.391Z,97.96
2023-09-01T00:21:19.670Z,98.02
2023-09-01T00:23:48.332Z,97.99
2023-09-01T00:26:17.094Z,97.98
2023-09-01T00:28:49.675Z,98.10
2023-09-01T00:31:21.382Z,98.37
2023-09-01T00:33:50.212Z,98.48
2023-09-01T00:36:20.150Z,98.64
2023-09-01T00:38:48.889Z,98.81
2023-09-01T00:41:17.615Z,98.92
2023-09-01T00:43:46.340Z,98.96
2023-09-01T00:46:15.309Z,98.85
2023-09-01T00:48:47.972Z,99.09
2023-09-01T00:51:18.977Z,99.03
2023-09-01T00:53:50.976Z,98.78
2023-09-01T00:56:21.612Z,99.16
2023-09-01T00:58:50.548Z,99.13
2023-09-01T01:01:19.325Z,99.03
2023-09-01T01:03:52.617Z,99.29
2023-09-01T01:06:33.959Z,99.03
2023-09-01T01:09:13.084Z,99.16
2023-09-01T01:11:50.542Z,98.89
2023-09-01T01:14:30.433Z,99.02
2023-09-01T01:16:59.812Z,98.97
2023-09-01T01:19:51.212Z,98.88
2023-09-01T01:22:41.157Z,99.07
2023-09-01T01:25:14.269Z,99.18
2023-09-01T01:27:44.965Z,99.37
2023-09-01T01:30:15.296Z,99.25
2023-09-01T01:32:45.368Z,99.17
2023-09-01T01:35:23.926Z,99.22
2023-09-01T01:38:01.265Z,98.92
2023-09-01T01:40:34.087Z,98.69
2023-09-01T01:43:06.771Z,98.64
2023-09-01T01:45:40.819Z,98.22
2023-09-01T01:48:09.849Z,98.06
2023-09-01T01:50:38.696Z,97.99
2023-09-01T01:53:08.322Z,97.97
2023-09-01T01:55:38.631Z,97.46
2023-09-01T01:58:07.445Z,97.80
2023-09-01T02:00:36.385Z,97.60
2023-09-01T02:03:05.952Z,97.30
2023-09-01T02:05:35.188Z,97.54
2023-09-01T02:08:07.320Z,97.55
2023-09-01T02:10:37.396Z,97.06
2023-09-01T02:13:06.288Z,96.68
2023-09-01T02:15:35.712Z,96.60
2023-09-01T02:18:05.391Z,96.43
2023-09-01T02:20:38.877Z,96.65
2023-09-01T02:23:27.692Z,96.51
2023-09-01T02:25:58.316Z,96.41
2023-09-01T02:28:27.283Z,96.64
2023-09-01T02:30:56.155Z,96.68
2023-09-01T02:33:24.916Z,96.44
2023-09-01T02:36:13.677Z,96.29
2023-09-01T02:38:42.436Z,96.27
2023-09-01T02:41:12.478Z,96.35
2023-09-01T02:43:41.256Z,96.38
2023-09-01T02:46:09.973Z,96.09
2023-09-01T02:48:38.903Z,95.95
2023-09-01T02:51:08.132Z,95.93
2023-09-01T02:53:38.815Z,96.00
2023-09-01T02:56:08.719Z,95.86
2023-09-01T02:58:39.726Z,96.15
2023-09-01T03:01:11.738Z,96.09
2023-09-01T03:03:43.013Z,95.97
2023-09-01T03:06:12.630Z,95.86
2023-09-01T03:08:43.657Z,95.82
2023-09-01T03:11:12.993Z,95.85
2023-09-01T03:13:43.345Z,95.82
2023-09-01T03:16:12.195Z,95.75
2023-09-01T03:18:41.343Z,95.98
2023-09-01T03:21:14.822Z,95.70
2023-09-01T03:23:43.898Z,95.58
2023-09-01T03:26:13.185Z,95.65
2023-09-01T03:28:43.628Z,95.21
2023-09-01T03:31:13.403Z,95.47
2023-09-01T03:33:44.596Z,95.48
2023-09-01T03:36:15.123Z,95.58
2023-09-01T03:38:43.953Z,95.64
2023-09-01T03:41:12.721Z,95.38
2023-09-01T03:43:45.659Z,95.68
2023-09-01T03:46:14.589Z,95.63
2023-09-01T03:48:43.313Z,95.64
2023-09-01T03:51:16.693Z,95.81
2023-09-01T03:53:46.164Z,94.76
2023-09-01T03:56:16.553Z,94.86
2023-09-01T03:58:47.149Z,94.64
2023-09-01T04:01:16.160Z,94.70
2023-09-01T04:03:47.807Z,94.71
2023-09-01T04:06:17.794Z,94.73
2023-09-01T04:08:46.978Z,94.23
2023-09-01T04:11:17.117Z,94.01
2023-09-01T04:13:47.581Z,93.92
2023-09-01T04:16:16.383Z,93.94
2023-09-01T04:18:45.189Z,94.18
2023-09-01T04:21:13.990Z,94.25
2023-09-01T04:23:42.873Z,93.84
2023-09-01T04:26:15.800Z,93.60
2023-09-01T04:28:46.912Z,93.33
2023-09-01T04:31:19.599Z,93.11
2023-09-01T04:33:49.167Z,93.12
2023-09-01T04:36:17.905Z,92.90
2023-09-01T04:38:48.497Z,92.71
2023-09-01T04:41:18.563Z,92.71
2023-09-01T04:43:48.726Z,92.58
2023-09-01T04:46:18.558Z,92.46
2023-09-01T04:48:47.609Z,92.40
2023-09-01T04:51:16.414Z,92.65
2023-09-01T04:53:45.519Z,92.60
2023-09-01T04:56:14.752Z,92.51
2023-09-01T04:58:43.464Z,91.88
2023-09-01T05:01:13.638Z,91.43
2023-09-01T05:03:42.659Z,91.49
2023-09-01T05:06:12.140Z,91.48
2023-09-01T05:08:41.494Z,91.64
2023-09-01T05:11:10.724Z,91.80
2023-09-01T05:13:39.906Z,91.54
2023-09-01T05:16:08.849Z,91.06
2023-09-01T05:18:39.302Z,91.13
2023-09-01T05:21:08.263Z,90.87
2023-09-01T05:23:40.552Z,90.70
2023-09-01T05:26:09.397Z,90.45
2023-09-01T05:28:38.171Z,90.35
2023-09-01T05:31:07.054Z,90.30
2023-09-01T05:33:40.989Z,90.42
2023-09-01T05:36:10.155Z,89.87
2023-09-01T05:38:39.696Z,89.95
2023-09-01T05:41:10.617Z,90.03
2023-09-01T05:43:39.984Z,89.96
2023-09-01T05:46:09.184Z,89.67
2023-09-01T05:48:38.772Z,89.24
2023-09-01T05:51:09.112Z,89.11
2023-09-01T05:53:37.949Z,89.05
2023-09-01T05:56:07.111Z,88.48
2023-09-01T05:58:36.963Z,88.37
2023-09-01T06:01:06.000Z,87.61
2023-09-01T06:03:34.902Z,87.02
2023-09-01T06:06:03.842Z,86.87
2023-09-01T06:08:36.811Z,86.85
2023-09-01T06:11:08.776Z,87.12
2023-09-01T06:13:37.661Z,86.77
2023-09-01T06:16:07.293Z,86.83
2023-09-01T06:18:39.092Z,86.63
2023-09-01T06:21:08.069Z,86.53
2023-09-01T06:23:42.036Z,86.38
2023-09-01T06:26:11.960Z,86.11
2023-09-01T06:28:42.400Z,85.87
2023-09-01T06:31:15.274Z,85.59
2023-09-01T06:33:44.511Z,85.64
2023-09-01T06:36:14.656Z,85.08
2023-09-01T06:38:45.593Z,84.88
2023-09-01T06:41:15.156Z,85.07
2023-09-01T06:43:44.418Z,84.97
2023-09-01T06:46:15.702Z,84.62
2023-09-01T06:48:45.192Z,84.13
2023-09-01T06:51:13.981Z,84.08
2023-09-01T06:53:44.201Z,83.60
2023-09-01T06:56:13.070Z,83.84
2023-09-01T06:58:42.099Z,83.36
2023-09-01T07:01:12.691Z,83.69
2023-09-01T07:03:41.746Z,84.03
2023-09-01T07:06:11.897Z,83.60
2023-09-01T07:08:40.928Z,83.32
2023-09-01T07:11:14.267Z,83.35
2023-09-01T07:13:44.964Z,83.40
2023-09-01T07:16:13.753Z,83.38
2023-09-01T07:18:42.568Z,83.09
2023-09-01T07:21:11.603Z,83.20
2023-09-01T07:23:40.541Z,82.87
2023-09-01T07:26:10.684Z,82.95
2023-09-01T07:28:40.080Z,82.64
2023-09-01T07:31:13.935Z,81.89
2023-09-01T07:33:43.948Z,81.79
2023-09-01T07:36:14.621Z,81.23
2023-09-01T07:38:44.957Z,81.06
2023-09-01T07:41:15.019Z,80.22
2023-09-01T07:43:43.786Z,79.84
2023-09-01T07:46:12.496Z,79.28
2023-09-01T07:48:43.542Z,79.05
2023-09-01T07:51:12.344Z,78.99
2023-09-01T07:53:41.082Z,78.75
2023-09-01T07:56:25.242Z,78.66
2023-09-01T07:58:53.972Z,78.95
2023-09-01T08:01:24.699Z,78.26
2023-09-01T08:03:53.538Z,77.91
2023-09-01T08:06:22.594Z,77.84
2023-09-01T08:08:51.549Z,77.83
2023-09-01T08:11:21.614Z,77.76
2023-09-01T08:13:50.570Z,77.67
2023-09-01T08:16:19.372Z,77.17
2023-09-01T08:18:48.237Z,76.92
2023-09-01T08:21:17.055Z,76.32
2023-09-01T08:23:47.829Z,75.80
2023-09-01T08:26:16.525Z,75.20
2023-09-01T08:28:46.659Z,74.89
2023-09-01T08:31:15.495Z,74.73
2023-09-01T08:33:44.398Z,74.93
2023-09-01T08:36:13.263Z,74.90
2023-09-01T08:38:43.949Z,74.92
2023-09-01T08:41:15.377Z,74.78
2023-09-01T08:43:48.152Z,74.80
2023-09-01T08:46:21.164Z,74.67
2023-09-01T08:48:50.232Z,74.56
2023-09-01T08:51:22.424Z,74.45
2023-09-01T08:53:52.704Z,74.36
2023-09-01T08:56:22.907Z,74.60
2023-09-01T08:58:55.102Z,74.62
2023-09-01T09:01:24.749Z,74.73
2023-09-01T09:03:53.705Z,74.47
2023-09-01T09:06:33.913Z,74.18
2023-09-01T09:09:12.955Z,72.91
2023-09-01T09:11:42.440Z,73.30
2023-09-01T09:14:12.681Z,72.75
2023-09-01T09:16:54.079Z,72.91
2023-09-01T09:19:23.254Z,72.67
2023-09-01T09:22:05.864Z,72.60
2023-09-01T09:24:39.504Z,72.58
2023-09-01T09:27:08.497Z,71.81
2023-09-01T09:29:43.271Z,72.05
2023-09-01T09:32:23.474Z,71.58
2023-09-01T09:35:11.595Z,71.35
2023-09-01T09:37:44.878Z,71.24
2023-09-01T09:40:16.814Z,70.98
2023-09-01T09:42:47.121Z,70.87
2023-09-01T09:45:29.685Z,70.78
2023-09-01T09:48:04.947Z,71.15
2023-09-01T09:50:35.559Z,70.84
2023-09-01T09:53:07.080Z,69.94
2023-09-01T09:55:47.486Z,70.42
2023-09-01T09:58:20.032Z,70.27
2023-09-01T10:00:55.027Z,70.18
2023-09-01T10:03:27.202Z,69.82
2023-09-01T10:05:57.561Z,69.64
2023-09-01T10:08:27.179Z,69.35
2023-09-01T10:10:59.340Z,68.54
2023-09-01T10:13:29.188Z,68.79
2023-09-01T10:16:02.197Z,68.29
2023-09-01T10:18:32.025Z,68.41
2023-09-01T10:21:01.247Z,68.00
2023-09-01T10:23:32.144Z,67.90
2023-09-01T10:26:18.635Z,67.98
2023-09-01T10:29:06.948Z,68.50
2023-09-01T10:31:38.483Z,68.11
2023-09-01T10:34:09.792Z,68.59
2023-09-01T10:36:39.859Z,68.36
2023-09-01T10:39:25.268Z,67.84
2023-09-01T10:41:59.997Z,65.41
2023-09-01T10:45:12.699Z,64.49
2023-09-01T10:47:53.383Z,64.44
2023-09-01T10:50:22.458Z,63.96
2023-09-01T10:53:31.610Z,64.29
2023-09-01T10:56:12.051Z,64.81
2023-09-01T10:58:42.489Z,64.74
2023-09-01T11:01:35.356Z,65.21
2023-09-01T11:04:33.184Z,65.67
2023-09-01T11:07:08.187Z,65.84
2023-09-01T11:09:57.357Z,66.06
2023-09-01T11:12:34.438Z,66.02
2023-09-01T11:15:06.779Z,65.49
2023-09-01T11:17:42.386Z,65.21
2023-09-01T11:20:19.714Z,65.06
2023-09-01T11:22:48.926Z,64.57
2023-09-01T11:25:19.639Z,64.11
2023-09-01T11:27:52.796Z,63.87
2023-09-01T11:30:22.411Z,63.71
2023-09-01T11:32:52.963Z,63.89
2023-09-01T11:35:30.887Z,63.89
2023-09-01T11:38:00.322Z,64.27
2023-09-01T11:40:32.825Z,63.99
2023-09-01T11:43:01.790Z,63.23
2023-09-01T11:45:30.730Z,62.53
2023-09-01T11:47:59.631Z,61.63
2023-09-01T11:50:30.015Z,61.52
2023-09-01T11:52:59.408Z,61.40
2023-09-01T11:55:38.439Z,61.15
2023-09-01T11:58:07.518Z,61.10
2023-09-01T12:00:40.348Z,60.81
2023-09-01T12:03:13.212Z,60.67
2023-09-01T12:05:43.569Z,60.25
2023-09-01T12:08:12.703Z,60.86
2023-09-01T12:10:41.777Z,60.68
2023-09-01T12:13:13.763Z,60.71
2023-09-01T12:16:00.941Z,61.02
2023-09-01T12:18:41.969Z,62.11
2023-09-01T12:21:13.130Z,63.36
2023-09-01T12:23:44.428Z,64.48
2023-09-01T12:26:15.019Z,64.88
2023-09-01T12:28:46.164Z,65.24
2023-09-01T12:31:15.866Z,65.53
2023-09-01T12:33:49.163Z,65.69
2023-09-01T12:36:19.956Z,65.83
2023-09-01T12:38:48.704Z,65.76
2023-09-01T12:41:17.406Z,65.99
2023-09-01T12:43:46.182Z,65.83
2023-09-01T12:46:15.074Z,65.92
2023-09-01T12:48:43.941Z,65.53
2023-09-01T12:51:13.027Z,65.20
2023-09-01T12:53:43.549Z,64.36
2023-09-01T12:56:12.505Z,64.28
2023-09-01T12:58:41.999Z,64.08
2023-09-01T13:01:10.949Z,64.01
2023-09-01T13:03:39.869Z,63.90
2023-09-01T13:06:13.001Z,64.08
2023-09-01T13:08:43.189Z,63.88
2023-09-01T13:11:13.036Z,63.83
2023-09-01T13:13:42.252Z,63.46
2023-09-01T13:16:11.857Z,63.47
2023-09-01T13:18:41.425Z,63.70
2023-09-01T13:21:10.836Z,63.95
2023-09-01T13:23:39.652Z,64.02
2023-09-01T13:26:09.825Z,63.88
2023-09-01T13:28:39.543Z,63.09
2023-09-01T13:31:08.364Z,62.98
2023-09-01T13:33:42.070Z,62.71
2023-09-01T13:36:12.727Z,62.55
2023-09-01T13:38:41.630Z,62.73
2023-09-01T13:41:11.942Z,62.43
2023-09-01T13:43:40.675Z,62.67
2023-09-01T13:46:23.860Z,62.50
2023-09-01T13:48:55.281Z,62.13
2023-09-01T13:51:25.295Z,61.81
2023-09-01T13:53:58.015Z,61.76
2023-09-01T13:56:28.474Z,62.19
2023-09-01T13:59:01.282Z,62.00
2023-09-01T14:01:30.104Z,61.97
2023-09-01T14:03:58.910Z,61.75
2023-09-01T14:06:27.638Z,61.97
2023-09-01T14:08:56.629Z,62.20
2023-09-01T14:11:25.672Z,62.38
2023-09-01T14:13:55.804Z,63.00
2023-09-01T14:16:32.346Z,63.54
2023-09-01T14:19:01.638Z,63.65
2023-09-01T14:21:30.548Z,63.48
2023-09-01T14:23:59.251Z,63.64
2023-09-01T14:26:28.013Z,63.29
2023-09-01T14:28:58.065Z,63.10
2023-09-01T14:31:27.122Z,62.60
2023-09-01T14:33:56.352Z,62.69
2023-09-01T14:36:26.758Z,62.88
2023-09-01T14:38:56.697Z,62.82
2023-09-01T14:41:25.602Z,62.40
2023-09-01T14:43:54.384Z,61.88
2023-09-01T14:46:24.666Z,62.17
2023-09-01T14:48:53.489Z,61.12
2023-09-01T14:51:22.254Z,60.96
2023-09-01T14:53:51.003Z,60.88
2023-09-01T14:56:20.527Z,60.68
2023-09-01T14:58:49.450Z,60.28
2023-09-01T15:01:20.933Z,60.43
2023-09-01T15:04:16.729Z,59.77
2023-09-01T15:06:45.412Z,60.26
2023-09-01T15:09:14.185Z,60.02
2023-09-01T15:11:42.876Z,60.26
2023-09-01T15:14:11.614Z,60.26
2023-09-01T15:16:41.508Z,61.27
2023-09-01T15:19:11.845Z,61.65
2023-09-01T15:21:42.374Z,62.05
2023-09-01T15:24:11.135Z,62.79
2023-09-01T15:26:39.896Z,63.37
2023-09-01T15:29:08.715Z,63.71
2023-09-01T15:31:37.580Z,64.14
2023-09-01T15:34:06.434Z,64.74
2023-09-01T15:36:35.710Z,65.45
2023-09-01T15:39:08.678Z,65.54
2023-09-01T15:41:37.403Z,65.52
2023-09-01T15:44:09.677Z,66.25
2023-09-01T15:46:40.270Z,66.37
2023-09-01T15:49:09.124Z,66.21
2023-09-01T15:51:38.143Z,66.22
2023-09-01T15:54:08.513Z,66.52
2023-09-01T15:56:38.771Z,66.37
2023-09-01T15:59:08.389Z,66.43
2023-09-01T16:01:37.118Z,66.75
2023-09-01T16:04:06.699Z,66.82
2023-09-01T16:06:36.381Z,67.02
2023-09-01T16:09:07.448Z,67.03
2023-09-01T16:11:38.298Z,67.40
2023-09-01T16:14:07.308Z,67.67
2023-09-01T16:16:37.252Z,67.85
2023-09-01T16:19:06.561Z,68.21
2023-09-01T16:21:35.321Z,68.07
2023-09-01T16:24:04.109Z,67.96
2023-09-01T16:26:32.843Z,67.91
2023-09-01T16:29:02.921Z,68.02
2023-09-01T16:31:31.650Z,68.35
2023-09-01T16:34:00.390Z,68.48
2023-09-01T16:36:29.555Z,69.26
2023-09-01T16:38:58.964Z,69.36
2023-09-01T16:41:27.723Z,69.90
2023-09-01T16:43:56.477Z,69.79
2023-09-01T16:46:26.650Z,70.37
2023-09-01T16:48:55.356Z,70.44
2023-09-01T16:51:24.138Z,70.69
2023-09-01T16:53:52.969Z,70.89
2023-09-01T16:56:21.612Z,71.00
2023-09-01T16:58:50.585Z,71.02
2023-09-01T17:01:27.650Z,71.00
2023-09-01T17:03:58.346Z,71.06
2023-09-01T17:06:27.050Z,71.18
2023-09-01T17:08:58.534Z,71.44
2023-09-01T17:11:27.412Z,71.57
2023-09-01T17:13:56.392Z,71.77
2023-09-01T17:16:25.418Z,71.96
2023-09-01T17:18:56.409Z,72.26
2023-09-01T17:21:26.939Z,72.81
2023-09-01T17:23:55.725Z,73.08
2023-09-01T17:26:27.539Z,73.21
2023-09-01T17:28:56.268Z,73.56
2023-09-01T17:31:24.989Z,73.51
2023-09-01T17:33:56.297Z,73.77
2023-09-01T17:36:26.487Z,74.09
2023-09-01T17:38:55.336Z,74.20
2023-09-01T17:41:37.685Z,75.14
2023-09-01T17:44:11.313Z,75.44
2023-09-01T17:46:40.027Z,75.50
2023-09-01T17:49:09.939Z,75.49
2023-09-01T17:51:40.083Z,75.57
2023-09-01T17:54:08.856Z,75.93
2023-09-01T17:56:37.616Z,75.79
2023-09-01T17:59:06.537Z,76.05
2023-09-01T18:01:35.432Z,76.40
2023-09-01T18:04:05.696Z,76.64
2023-09-01T18:06:35.925Z,77.09
2023-09-01T18:09:08.572Z,77.19
2023-09-01T18:11:41.774Z,77.66
2023-09-01T18:14:11.234Z,77.55
2023-09-01T18:16:39.996Z,77.53
2023-09-01T18:19:09.396Z,77.31
2023-09-01T18:21:42.058Z,76.85
2023-09-01T18:24:18.145Z,76.77
2023-09-01T18:26:47.120Z,76.67
2023-09-01T18:29:23.898Z,76.54
2023-09-01T18:31:56.411Z,76.56
2023-09-01T18:34:26.930Z,76.14
2023-09-01T18:36:57.850Z,75.98
2023-09-01T18:39:28.608Z,75.48
2023-09-01T18:41:57.404Z,74.74
2023-09-01T18:44:26.233Z,73.88
2023-09-01T18:46:55.444Z,73.69
2023-09-01T18:49:25.932Z,73.12
2023-09-01T18:52:01.959Z,72.89
2023-09-01T18:54:32.720Z,72.76
2023-09-01T18:57:04.020Z,72.93
2023-09-01T18:59:33.344Z,73.15
2023-09-01T19:02:03.773Z,73.68
2023-09-01T19:04:32.485Z,73.63
2023-09-01T19:07:03.122Z,73.71
2023-09-01T19:09:36.772Z,73.81
2023-09-01T19:12:12.006Z,74.01
2023-09-01T19:14:41.765Z,74.20
2023-09-01T19:17:10.865Z,74.36
2023-09-01T19:19:42.430Z,74.60
2023-09-01T19:22:11.407Z,74.78
2023-09-01T19:24:41.576Z,74.98
2023-09-01T19:27:10.926Z,75.70
2023-09-01T19:29:47.595Z,75.70
2023-09-01T19:32:17.236Z,75.94
2023-09-01T19:34:46.257Z,76.15
2023-09-01T19:37:14.928Z,76.49
2023-09-01T19:39:45.095Z,76.48
2023-09-01T19:42:18.519Z,76.55
2023-09-01T19:44:47.836Z,76.51
2023-09-01T19:47:21.486Z,76.76
2023-09-01T19:49:50.402Z,76.78
2023-09-01T19:52:21.203Z,76.89
2023-09-01T19:54:51.390Z,77.11
2023-09-01T19:57:20.160Z,77.10
2023-09-01T19:59:48.916Z,77.41
2023-09-01T20:02:21.703Z,77.49
2023-09-01T20:04:53.259Z,77.32
2023-09-01T20:07:22.153Z,77.29
2023-09-01T20:09:52.384Z,77.49
2023-09-01T20:12:21.105Z,77.41
2023-09-01T20:14:51.034Z,77.54
2023-09-01T20:17:20.262Z,77.63
2023-09-01T20:19:49.216Z,77.54
2023-09-01T20:22:19.975Z,77.33
2023-09-01T20:24:48.665Z,77.44
2023-09-01T20:27:21.212Z,77.41
2023-09-01T20:29:52.778Z,77.41
2023-09-01T20:32:21.518Z,77.24
2023-09-01T20:34:50.200Z,77.20
2023-09-01T20:37:18.933Z,77.23
2023-09-01T20:39:47.624Z,77.31
2023-09-01T20:42:16.304Z,77.32
2023-09-01T20:44:46.795Z,77.47
2023-09-01T20:47:16.297Z,77.49
2023-09-01T20:49:45.426Z,77.55
2023-09-01T20:52:14.083Z,77.73
2023-09-01T20:54:42.827Z,77.87
2023-09-01T20:57:11.565Z,77.85
2023-09-01T20:59:40.351Z,77.74
2023-09-01T21:02:10.445Z,77.99
2023-09-01T21:04:39.233Z,77.95
2023-09-01T21:07:07.917Z,77.95
2023-09-01T21:09:36.783Z,78.29
2023-09-01T21:12:07.644Z,78.37
2023-09-01T21:14:36.404Z,78.70
2023-09-01T21:17:05.590Z,79.23
2023-09-01T21:19:35.752Z,79.16
2023-09-01T21:22:04.594Z,79.38
2023-09-01T21:24:33.364Z,79.56
2023-09-01T21:27:02.273Z,79.82
2023-09-01T21:29:31.001Z,80.02
2023-09-01T21:31:59.657Z,79.69
2023-09-01T21:34:28.484Z,79.40
2023-09-01T21:36:58.708Z,79.31
2023-09-01T21:39:28.194Z,78.91
2023-09-01T21:41:57.028Z,78.75
2023-09-01T21:44:25.888Z,78.86
2023-09-01T21:46:54.694Z,78.84
2023-09-01T21:49:23.573Z,78.90
2023-09-01T21:51:52.476Z,79.12
2023-09-01T21:54:23.381Z,79.24
2023-09-01T21:56:52.245Z,80.07
2023-09-01T21:59:20.990Z,80.12
2023-09-01T22:01:49.743Z,80.18
2023-09-01T22:04:18.471Z,80.06
2023-09-01T22:06:47.456Z,80.42
2023-09-01T22:09:16.223Z,80.60
2023-09-01T22:11:46.447Z,80.62
2023-09-01T22:14:15.543Z,80.90
2023-09-01T22:16:44.301Z,81.03
2023-09-01T22:19:13.264Z,81.31
2023-09-01T22:21:44.289Z,81.48
2023-09-01T22:24:15.031Z,81.62
2023-09-01T22:26:53.103Z,81.64
2023-09-01T22:29:22.188Z,81.63
2023-09-01T22:31:51.038Z,81.46
2023-09-01T22:34:19.675Z,81.68
2023-09-01T22:36:48.784Z,82.49
2023-09-01T22:39:17.611Z,82.69
2023-09-01T22:41:47.781Z,82.92
2023-09-01T22:44:16.528Z,83.13
2023-09-01T22:46:45.244Z,83.40
2023-09-01T22:49:14.008Z,83.58
2023-09-01T22:51:42.715Z,83.69
2023-09-01T22:54:11.443Z,83.54
2023-09-01T22:56:41.242Z,83.28
2023-09-01T22:59:11.359Z,83.13
2023-09-01T23:01:40.325Z,82.90
2023-09-01T23:04:09.279Z,83.01
2023-09-01T23:06:38.491Z,82.48
2023-09-01T23:09:07.486Z,82.44
2023-09-01T23:11:36.282Z,82.38
2023-09-01T23:14:05.761Z,82.73
2023-09-01T23:16:35.880Z,82.96
2023-09-01T23:19:04.821Z,83.17
2023-09-01T23:21:33.666Z,83.11
2023-09-01T23:24:02.649Z,83.85
2023-09-01T23:26:31.340Z,83.76
2023-09-01T23:29:00.017Z,83.93
2023-09-01T23:31:28.881Z,83.85
2023-09-01T23:33:59.042Z,83.69
2023-09-01T23:36:27.904Z,83.57
2023-09-01T23:38:57.535Z,83.33
2023-09-01T23:41:26.466Z,83.19
2023-09-01T23:43:55.269Z,83.17
2023-09-01T23:46:23.998Z,83.29
2023-09-01T23:48:52.644Z,83.23
2023-09-01T23:51:22.750Z,83.18
2023-09-01T23:53:51.502Z,83.25
2023-09-01T23:56:20.452Z,83.10
2023-09-01T23:58:49.159Z,83.12
